Thessaloniki, Greece

10:19 PM EEST on September 27, 2016 (GMT +0300)
Makedonia | | Change Station

Elev 13 ft 40.52 °N, 22.97 °E | Updated 29 minutes ago

Partly Cloudy
Partly Cloudy
61 °F
Feels Like 61 °F
N
7
Wind Variable Wind from ESE

Today
High -- | Low -- °F
--% Chance of Precip.
Yesterday
High -- | Low -- °F
Precip. -- in
Pressure 30.27 in
Visibility 6.2 miles
Clouds Few 2500 ft
Dew Point 52 °F
Humidity 72%
Rainfall 0.00 in
Snow Depth Not available.
7:20 AM 7:16 PM
Waning Crescent, 10% visible
METAR LGTS 271850Z 11006KT 9999 FEW025 16/11 Q1025 NOSIG
Pressure 30.27 in
Visibility 6.2 miles
Clouds Few 2500 ft
Dew Point 52 °F
Humidity 72%
Rainfall 0.00 in
Snow Depth Not available.
7:20 AM 7:16 PM
Waning Crescent, 10% visible
METAR LGTS 271850Z 11006KT 9999 FEW025 16/11 Q1025 NOSIG

10-Day Weather Forecast

×

Almanac

Astronomy

Sep. 27, 2016 Rise Set
Actual Time
Civil Twilight
Nautical Twilight
Astronomical Twilight
Moon
Length of Visible Light
Length of Day
Tomorrow will be .
, % of the Moon is Illuminated

Today's Extremes

Country Highs Country Lows

Community

WunderPhotos

Upload Photos

1,942,162 photos uploaded!

WunderBlog® & News

Nearby

Air Quality

  Air Quality AQ Index Pollutant
Not available.

Snow Depth

Station Depth Elevation

Earthquake Activity

City Distance Mag. Time & Date
Minimum magnitude displayed is 2.5.

Coastal Water Temperatures

Place Temperature

Stations

Nearby Weather Stations

Station Location Temp. Windchill Dew Point Humidity Wind Precip. Elev Updated Type